Time;durP1;ratioP1;P1;durP2;ratioP2;P2;SDS_P1;SDS_P2;PMS_P1;PMS_P2;Temp;Humidity;BMP_temperature;BMP_pressure;BME280_temperature;BME280_humidity;BME280_pressure;Samples;Min_cycle;Max_cycle;Signal;HPM_P1;HPM_P2
2021/12/01 00:02:16;;;;;;;7.00;6.35;;;;;;;;;;5084496;28;20202;-79
2021/12/01 00:04:43;;;;;;;7.25;6.35;;;;;;;;;;5074902;28;20222;-78
2021/12/01 00:07:11;;;;;;;6.57;5.80;;;;;;;;;;5078515;28;20205;-78
2021/12/01 00:09:38;;;;;;;7.28;5.65;;;;;;;;;;5076827;28;20195;-79
2021/12/01 00:12:08;;;;;;;5.32;4.88;;;;;;;;;;5069991;28;20202;-80
2021/12/01 00:14:35;;;;;;;5.43;4.80;;;;;;;;;;5068061;28;20245;-79
2021/12/01 00:17:04;;;;;;;7.18;5.85;;;;;;;;;;5075607;28;20198;-79
2021/12/01 00:19:33;;;;;;;5.35;4.85;;;;;;;;;;5081429;28;20194;-79
2021/12/01 00:22:00;;;;;;;6.15;5.55;;;;;;;;;;5078481;28;20294;-79
2021/12/01 00:24:27;;;;;;;5.65;5.00;;;;;;;;;;5089775;28;20210;-79
2021/12/01 00:26:54;;;;;;;4.72;4.28;;;;;;;;;;5078490;28;20213;-79
2021/12/01 00:29:21;;;;;;;4.63;4.18;;;;;;;;;;5082620;28;20194;-79
2021/12/01 00:31:49;;;;;;;4.15;3.85;;;;;;;;;;5078459;28;20194;-79
2021/12/01 00:34:17;;;;;;;4.10;3.70;;;;;;;;;;5073610;28;20199;-79
2021/12/01 00:36:44;;;;;;;4.07;3.67;;;;;;;;;;5077309;28;20194;-79
2021/12/01 00:39:11;;;;;;;4.00;3.60;;;;;;;;;;5070701;28;20195;-79
2021/12/01 00:41:38;;;;;;;4.72;3.35;;;;;;;;;;5071002;28;20205;-79
2021/12/01 00:44:07;;;;;;;3.63;3.33;;;;;;;;;;5065016;28;20224;-79
2021/12/01 00:46:41;;;;;;;3.08;2.78;;;;;;;;;;5062623;28;20569;-79
2021/12/01 00:49:08;;;;;;;2.63;2.42;;;;;;;;;;5064902;28;20244;-79
2021/12/01 00:51:36;;;;;;;4.50;3.17;;;;;;;;;;5076240;28;20209;-79
2021/12/01 00:54:03;;;;;;;3.20;2.90;;;;;;;;;;5075036;28;20692;-79
2021/12/01 00:56:30;;;;;;;3.15;2.95;;;;;;;;;;5062731;28;20203;-79
2021/12/01 00:58:58;;;;;;;2.30;2.10;;;;;;;;;;5062486;28;20201;-79
2021/12/01 01:01:25;;;;;;;2.88;2.22;;;;;;;;;;5061519;28;20217;-80
2021/12/01 01:03:52;;;;;;;2.67;2.47;;;;;;;;;;5064767;28;20304;-79
2021/12/01 01:06:19;;;;;;;2.10;1.80;;;;;;;;;;5064773;28;20577;-79
2021/12/01 01:08:47;;;;;;;2.40;2.22;;;;;;;;;;5052898;28;20206;-78
2021/12/01 01:16:45;;;;;;;2.05;1.85;;;;;;;;;;5071582;28;20711;-79
2021/12/01 01:19:14;;;;;;;1.60;1.50;;;;;;;;;;5074050;28;20178;-78
2021/12/01 01:21:47;;;;;;;1.77;1.40;;;;;;;;;;5084873;28;20194;-78
2021/12/01 01:24:15;;;;;;;1.60;1.50;;;;;;;;;;5080415;28;20236;-78
2021/12/01 01:26:43;;;;;;;1.95;1.35;;;;;;;;;;5067787;28;20237;-79
2021/12/01 01:29:10;;;;;;;1.52;1.42;;;;;;;;;;5068891;28;20194;-79
2021/12/01 01:31:38;;;;;;;1.55;1.45;;;;;;;;;;5087013;28;20202;-77
2021/12/01 01:34:05;;;;;;;2.38;1.70;;;;;;;;;;5065496;28;20190;-77
2021/12/01 01:36:32;;;;;;;1.98;1.60;;;;;;;;;;5052020;28;20198;-77
2021/12/01 01:39:00;;;;;;;2.47;1.10;;;;;;;;;;5051502;28;20202;-78
2021/12/01 01:41:28;;;;;;;1.27;1.17;;;;;;;;;;5053400;28;20195;-78
2021/12/01 01:43:56;;;;;;;1.70;1.45;;;;;;;;;;5062823;28;20197;-79
2021/12/01 01:46:23;;;;;;;1.40;1.15;;;;;;;;;;5059253;28;20202;-77
2021/12/01 01:48:53;;;;;;;1.23;1.13;;;;;;;;;;5053015;28;20201;-78
2021/12/01 01:51:21;;;;;;;2.58;1.73;;;;;;;;;;5057314;28;20202;-77
2021/12/01 01:53:50;;;;;;;2.22;1.25;;;;;;;;;;5050942;28;20225;-78
2021/12/01 01:56:17;;;;;;;2.10;1.52;;;;;;;;;;5057075;28;20691;-78
2021/12/01 01:58:46;;;;;;;1.83;1.63;;;;;;;;;;5055535;28;20386;-78
2021/12/01 02:01:23;;;;;;;1.77;1.40;;;;;;;;;;5058825;28;20205;-78
2021/12/01 02:03:50;;;;;;;1.27;1.17;;;;;;;;;;5062192;28;20199;-78
2021/12/01 02:06:22;;;;;;;1.40;1.10;;;;;;;;;;5061245;28;20202;-79
2021/12/01 02:08:50;;;;;;;1.52;1.42;;;;;;;;;;5070305;28;20286;-79
2021/12/01 02:11:18;;;;;;;1.40;1.23;;;;;;;;;;5058525;28;20277;-79
2021/12/01 02:13:47;;;;;;;1.10;1.00;;;;;;;;;;5051213;28;20226;-80
2021/12/01 02:16:14;;;;;;;1.20;1.00;;;;;;;;;;5057517;28;20194;-78
2021/12/01 02:18:42;;;;;;;1.40;1.10;;;;;;;;;;5059890;28;20194;-79
2021/12/01 02:21:11;;;;;;;1.13;1.00;;;;;;;;;;5050923;28;20581;-78
2021/12/01 02:23:40;;;;;;;1.70;1.15;;;;;;;;;;5050774;28;20203;-79
2021/12/01 02:26:08;;;;;;;1.30;1.10;;;;;;;;;;5063413;28;20570;-78
2021/12/01 02:28:35;;;;;;;1.25;1.15;;;;;;;;;;5054927;28;20615;-78
2021/12/01 02:31:02;;;;;;;2.65;1.30;;;;;;;;;;5051857;28;20194;-79
2021/12/01 02:33:29;;;;;;;2.20;1.27;;;;;;;;;;5057531;28;20197;-78
2021/12/01 02:35:57;;;;;;;4.60;1.17;;;;;;;;;;5051949;28;20217;-79
2021/12/01 02:38:25;;;;;;;4.20;1.20;;;;;;;;;;5053497;28;20199;-78
2021/12/01 02:40:53;;;;;;;2.47;1.17;;;;;;;;;;5055689;28;20202;-80
2021/12/01 02:43:23;;;;;;;1.20;0.98;;;;;;;;;;5054895;28;20206;-80
2021/12/01 02:45:51;;;;;;;1.10;0.93;;;;;;;;;;5055612;28;20218;-79
2021/12/01 02:48:18;;;;;;;1.20;0.90;;;;;;;;;;5052693;28;20553;-78
2021/12/01 02:50:46;;;;;;;1.20;1.10;;;;;;;;;;5053356;28;20195;-79
2021/12/01 02:53:13;;;;;;;1.92;0.90;;;;;;;;;;5060217;28;20199;-78
2021/12/01 02:55:50;;;;;;;1.15;1.05;;;;;;;;;;5058602;28;20195;-79
2021/12/01 02:58:17;;;;;;;1.77;1.67;;;;;;;;;;5062955;28;20633;-78
2021/12/01 03:00:45;;;;;;;1.80;1.20;;;;;;;;;;5059624;28;20221;-78
2021/12/01 03:03:13;;;;;;;1.65;1.30;;;;;;;;;;5065374;28;20199;-79
2021/12/01 03:05:40;;;;;;;1.40;1.30;;;;;;;;;;5056534;28;20228;-79
2021/12/01 03:08:08;;;;;;;5.30;1.60;;;;;;;;;;5068388;28;20199;-80
2021/12/01 03:10:35;;;;;;;1.90;1.23;;;;;;;;;;5073034;28;20556;-79
2021/12/01 03:13:05;;;;;;;1.98;1.40;;;;;;;;;;5056710;28;20201;-79
2021/12/01 03:15:32;;;;;;;1.60;1.27;;;;;;;;;;5056520;28;20417;-79
2021/12/01 03:18:00;;;;;;;1.20;1.10;;;;;;;;;;5056959;28;20202;-76
2021/12/01 03:20:27;;;;;;;1.30;1.20;;;;;;;;;;5053583;28;20214;-76
2021/12/01 03:22:55;;;;;;;1.40;1.30;;;;;;;;;;5055716;28;20657;-76
2021/12/01 03:25:23;;;;;;;1.60;1.33;;;;;;;;;;5061947;28;20215;-75
2021/12/01 03:27:50;;;;;;;1.95;1.75;;;;;;;;;;5061039;28;20605;-75
2021/12/01 03:30:18;;;;;;;1.50;1.35;;;;;;;;;;5054873;28;20601;-76
2021/12/01 03:32:46;;;;;;;3.17;1.60;;;;;;;;;;5055945;28;20217;-76
2021/12/01 03:35:14;;;;;;;1.80;1.52;;;;;;;;;;5053814;28;20198;-75
2021/12/01 03:37:42;;;;;;;1.98;1.77;;;;;;;;;;5057733;28;20201;-76
2021/12/01 03:40:10;;;;;;;3.20;2.20;;;;;;;;;;5052777;28;20195;-76
2021/12/01 03:42:38;;;;;;;1.80;1.70;;;;;;;;;;5053572;28;20211;-76
2021/12/01 03:45:06;;;;;;;2.45;1.52;;;;;;;;;;5051189;28;20222;-76
2021/12/01 03:47:35;;;;;;;1.65;1.55;;;;;;;;;;5060718;28;20195;-76
2021/12/01 03:50:02;;;;;;;2.78;2.10;;;;;;;;;;5061692;28;20209;-76
2021/12/01 03:52:29;;;;;;;2.00;1.80;;;;;;;;;;5056254;28;20211;-76
2021/12/01 03:54:56;;;;;;;2.08;1.85;;;;;;;;;;5060789;28;20225;-77
2021/12/01 03:57:23;;;;;;;2.28;2.08;;;;;;;;;;5057410;28;20657;-77
2021/12/01 03:59:52;;;;;;;2.35;1.60;;;;;;;;;;5059122;28;20225;-77
2021/12/01 04:02:19;;;;;;;2.55;2.35;;;;;;;;;;5055391;28;20199;-76
2021/12/01 04:04:47;;;;;;;1.83;1.73;;;;;;;;;;5058826;28;20195;-76
2021/12/01 04:07:14;;;;;;;2.40;2.20;;;;;;;;;;5054684;28;20588;-77
2021/12/01 04:09:42;;;;;;;2.10;1.90;;;;;;;;;;5058271;28;20221;-76
2021/12/01 04:12:10;;;;;;;1.85;1.75;;;;;;;;;;5054363;28;20206;-77
2021/12/01 04:14:37;;;;;;;2.20;2.00;;;;;;;;;;5055848;28;20660;-78
2021/12/01 04:17:04;;;;;;;2.08;1.60;;;;;;;;;;5055078;28;20202;-77
2021/12/01 04:19:31;;;;;;;2.15;1.95;;;;;;;;;;5055531;28;20198;-78
2021/12/01 04:22:00;;;;;;;2.22;1.95;;;;;;;;;;5056965;28;20210;-77
2021/12/01 04:24:27;;;;;;;2.97;2.58;;;;;;;;;;5055708;28;20210;-77
2021/12/01 04:26:54;;;;;;;2.90;2.50;;;;;;;;;;5054698;28;20230;-77
2021/12/01 04:29:21;;;;;;;3.65;2.63;;;;;;;;;;5053011;28;20202;-77
2021/12/01 04:31:49;;;;;;;4.07;2.72;;;;;;;;;;5051976;28;20681;-77
2021/12/01 04:34:16;;;;;;;4.50;2.88;;;;;;;;;;5055470;28;20704;-77
2021/12/01 04:36:44;;;;;;;3.35;2.72;;;;;;;;;;5055033;28;20203;-76
2021/12/01 04:39:13;;;;;;;3.30;2.65;;;;;;;;;;5052185;28;20574;-77
2021/12/01 04:41:48;;;;;;;2.75;2.55;;;;;;;;;;5056020;28;20198;-77
2021/12/01 04:44:15;;;;;;;2.85;2.65;;;;;;;;;;5056882;28;20202;-76
2021/12/01 04:46:44;;;;;;;3.35;2.30;;;;;;;;;;5051067;28;20213;-76
2021/12/01 04:49:12;;;;;;;2.92;2.28;;;;;;;;;;5053755;28;20245;-78
2021/12/01 04:51:40;;;;;;;4.30;2.85;;;;;;;;;;5052825;28;20200;-77
2021/12/01 04:54:08;;;;;;;2.83;2.63;;;;;;;;;;5063609;28;20203;-76
2021/12/01 04:56:37;;;;;;;2.50;2.25;;;;;;;;;;5061002;28;20202;-76
2021/12/01 04:59:05;;;;;;;2.63;2.40;;;;;;;;;;5053224;28;20237;-76
2021/12/01 05:01:32;;;;;;;2.58;2.38;;;;;;;;;;5056738;28;20210;-77
2021/12/01 05:03:59;;;;;;;3.83;2.30;;;;;;;;;;5065055;28;20198;-77
2021/12/01 05:06:26;;;;;;;3.40;2.85;;;;;;;;;;5050409;28;20215;-77
2021/12/01 05:08:53;;;;;;;5.15;2.42;;;;;;;;;;5051778;28;20213;-78
2021/12/01 05:11:20;;;;;;;2.90;2.65;;;;;;;;;;5058753;28;20210;-77
2021/12/01 05:13:48;;;;;;;2.55;2.35;;;;;;;;;;5057713;28;20786;-76
2021/12/01 05:16:15;;;;;;;2.50;2.30;;;;;;;;;;5058666;28;20673;-77
2021/12/01 05:18:43;;;;;;;2.13;1.92;;;;;;;;;;5055309;28;20194;-77
2021/12/01 05:21:10;;;;;;;2.80;2.60;;;;;;;;;;5053368;28;20206;-77
2021/12/01 05:23:37;;;;;;;2.63;2.35;;;;;;;;;;5058032;28;20195;-76
2021/12/01 05:26:04;;;;;;;2.85;2.30;;;;;;;;;;5059744;28;20222;-77
2021/12/01 05:28:31;;;;;;;2.53;2.33;;;;;;;;;;5052987;28;20629;-78
2021/12/01 05:30:59;;;;;;;3.80;2.58;;;;;;;;;;5053363;28;20198;-77
2021/12/01 05:33:26;;;;;;;3.50;3.20;;;;;;;;;;5056265;28;20210;-77
2021/12/01 05:35:54;;;;;;;2.90;2.70;;;;;;;;;;5050863;28;20198;-77
2021/12/01 05:38:21;;;;;;;3.10;2.42;;;;;;;;;;5054116;28;20641;-76
2021/12/01 05:40:50;;;;;;;2.85;2.58;;;;;;;;;;5051870;28;20206;-78
2021/12/01 05:43:17;;;;;;;3.33;3.03;;;;;;;;;;5062907;28;20199;-78
2021/12/01 05:45:44;;;;;;;3.03;2.72;;;;;;;;;;5055794;28;20215;-77
2021/12/01 05:48:13;;;;;;;4.60;3.05;;;;;;;;;;5051620;28;20206;-77
2021/12/01 05:50:40;;;;;;;3.45;2.97;;;;;;;;;;5051035;28;22073;-76
2021/12/01 05:53:09;;;;;;;3.47;2.85;;;;;;;;;;5052149;28;20194;-77
2021/12/01 05:55:36;;;;;;;2.90;2.70;;;;;;;;;;5051091;28;20194;-77
2021/12/01 05:58:03;;;;;;;3.10;2.42;;;;;;;;;;5052339;28;20220;-77
2021/12/01 06:00:31;;;;;;;2.70;1.88;;;;;;;;;;5050467;28;20221;-77
2021/12/01 06:02:58;;;;;;;3.65;2.95;;;;;;;;;;5052287;28;20225;-78
2021/12/01 06:05:27;;;;;;;2.42;2.22;;;;;;;;;;5052438;28;20619;-77
2021/12/01 06:07:54;;;;;;;2.20;2.00;;;;;;;;;;5049062;28;20194;-77
2021/12/01 06:10:22;;;;;;;2.53;2.20;;;;;;;;;;5056269;28;20206;-77
2021/12/01 06:12:49;;;;;;;2.20;2.00;;;;;;;;;;5051152;28;20215;-77
2021/12/01 06:15:17;;;;;;;2.55;2.00;;;;;;;;;;5050998;28;20206;-77
2021/12/01 06:17:45;;;;;;;2.75;2.30;;;;;;;;;;5051295;28;20206;-77
2021/12/01 06:20:13;;;;;;;2.45;2.25;;;;;;;;;;5052638;28;20197;-77
2021/12/01 06:22:42;;;;;;;2.10;2.00;;;;;;;;;;5060120;28;20205;-77
2021/12/01 06:25:09;;;;;;;2.38;2.10;;;;;;;;;;5052034;28;20198;-77
2021/12/01 06:27:36;;;;;;;2.30;2.10;;;;;;;;;;5052913;28;20218;-77
2021/12/01 06:30:04;;;;;;;2.70;2.20;;;;;;;;;;5049613;28;20206;-78
2021/12/01 06:32:31;;;;;;;2.25;2.05;;;;;;;;;;5052842;28;20676;-78
2021/12/01 06:34:58;;;;;;;2.55;2.20;;;;;;;;;;5056580;28;20666;-77
2021/12/01 06:37:25;;;;;;;2.10;1.90;;;;;;;;;;5056397;28;20660;-76
2021/12/01 06:39:54;;;;;;;2.35;2.10;;;;;;;;;;5057592;28;20198;-76
2021/12/01 06:42:21;;;;;;;2.30;2.10;;;;;;;;;;5059961;28;20191;-78
2021/12/01 06:44:48;;;;;;;2.33;2.13;;;;;;;;;;5072962;28;20201;-77
2021/12/01 06:47:16;;;;;;;2.90;2.58;;;;;;;;;;5056035;28;20219;-78
2021/12/01 06:49:45;;;;;;;2.47;2.28;;;;;;;;;;5052717;28;20301;-77
2021/12/01 06:52:12;;;;;;;4.70;2.20;;;;;;;;;;5059994;28;20194;-78
2021/12/01 06:54:40;;;;;;;3.17;2.65;;;;;;;;;;5058540;28;20199;-76
2021/12/01 06:57:08;;;;;;;2.58;2.38;;;;;;;;;;5053647;28;20209;-78
2021/12/01 06:59:35;;;;;;;2.85;2.60;;;;;;;;;;5054264;28;20206;-76
2021/12/01 07:02:02;;;;;;;2.47;2.25;;;;;;;;;;5059150;28;20209;-77
2021/12/01 07:04:30;;;;;;;2.33;1.80;;;;;;;;;;5056771;28;20545;-76
2021/12/01 07:06:58;;;;;;;2.80;2.38;;;;;;;;;;5059964;28;20316;-78
2021/12/01 07:09:26;;;;;;;3.00;2.00;;;;;;;;;;5059701;28;20199;-76
2021/12/01 07:11:53;;;;;;;4.43;2.55;;;;;;;;;;5059194;28;20226;-76
2021/12/01 07:14:21;;;;;;;2.92;2.70;;;;;;;;;;5055071;28;20203;-77
2021/12/01 07:16:49;;;;;;;3.25;2.40;;;;;;;;;;5059968;28;20666;-78
2021/12/01 07:19:16;;;;;;;2.33;2.13;;;;;;;;;;5056198;28;20226;-77
2021/12/01 07:21:43;;;;;;;2.80;2.60;;;;;;;;;;5052848;28;20566;-76
2021/12/01 07:24:10;;;;;;;2.05;1.73;;;;;;;;;;5053642;28;20206;-77
2021/12/01 07:26:37;;;;;;;1.90;1.80;;;;;;;;;;5054330;28;20222;-76
2021/12/01 07:29:05;;;;;;;2.80;1.85;;;;;;;;;;5058508;28;20199;-78
2021/12/01 07:31:33;;;;;;;2.25;1.80;;;;;;;;;;5055289;28;20199;-78
2021/12/01 07:34:00;;;;;;;2.47;2.28;;;;;;;;;;5054869;28;20205;-77
2021/12/01 07:36:28;;;;;;;1.90;1.65;;;;;;;;;;5055246;28;20205;-77
2021/12/01 07:38:56;;;;;;;2.45;1.80;;;;;;;;;;5061100;28;20584;-77
2021/12/01 07:41:24;;;;;;;1.63;1.52;;;;;;;;;;5055160;28;20268;-77
2021/12/01 07:43:51;;;;;;;2.17;1.73;;;;;;;;;;5057780;28;20207;-77
2021/12/01 07:46:18;;;;;;;2.17;1.98;;;;;;;;;;5056287;28;20222;-78
2021/12/01 07:48:46;;;;;;;1.70;1.40;;;;;;;;;;5051697;28;20203;-78
2021/12/01 07:51:14;;;;;;;1.75;1.60;;;;;;;;;;5053576;28;20199;-78
2021/12/01 07:53:41;;;;;;;5.03;1.30;;;;;;;;;;5052934;28;20210;-78
2021/12/01 07:56:08;;;;;;;1.67;1.55;;;;;;;;;;5057568;28;20654;-78
2021/12/01 07:58:35;;;;;;;1.70;1.50;;;;;;;;;;5054874;28;20556;-78
2021/12/01 08:01:02;;;;;;;1.80;1.45;;;;;;;;;;5056709;28;20620;-77
2021/12/01 08:03:29;;;;;;;1.60;1.35;;;;;;;;;;5058721;28;20202;-77
2021/12/01 08:05:58;;;;;;;1.90;1.63;;;;;;;;;;5051973;28;20186;-78
2021/12/01 08:08:25;;;;;;;2.88;1.50;;;;;;;;;;5055332;28;20206;-77
2021/12/01 08:10:52;;;;;;;1.30;1.20;;;;;;;;;;5051724;28;20201;-77
2021/12/01 08:13:19;;;;;;;1.40;1.30;;;;;;;;;;5066424;28;20217;-77
2021/12/01 08:15:47;;;;;;;2.10;1.40;;;;;;;;;;5067146;28;20454;-77
2021/12/01 08:18:14;;;;;;;1.30;1.00;;;;;;;;;;5068562;28;20205;-77
2021/12/01 08:20:41;;;;;;;3.33;1.35;;;;;;;;;;5051162;28;20642;-78
2021/12/01 08:23:10;;;;;;;1.40;1.13;;;;;;;;;;5054275;28;20653;-77
2021/12/01 08:25:37;;;;;;;1.45;1.35;;;;;;;;;;5058826;28;20198;-77
2021/12/01 08:28:05;;;;;;;1.38;1.00;;;;;;;;;;5061464;28;20716;-78
2021/12/01 08:30:32;;;;;;;1.75;1.40;;;;;;;;;;5056196;28;20203;-76
2021/12/01 08:33:00;;;;;;;1.75;1.30;;;;;;;;;;5066785;28;20201;-76
2021/12/01 08:35:27;;;;;;;2.40;1.52;;;;;;;;;;5056292;28;20554;-77
2021/12/01 08:37:55;;;;;;;1.60;1.25;;;;;;;;;;5051255;28;20194;-76
2021/12/01 08:40:23;;;;;;;1.40;1.30;;;;;;;;;;5057117;28;20198;-78
2021/12/01 08:42:50;;;;;;;1.30;1.20;;;;;;;;;;5059730;28;20205;-77
2021/12/01 08:45:18;;;;;;;1.48;1.38;;;;;;;;;;5067516;28;20197;-76
2021/12/01 08:47:48;;;;;;;1.63;1.50;;;;;;;;;;5054711;28;20219;-77
2021/12/01 08:50:15;;;;;;;1.70;1.40;;;;;;;;;;5057429;28;20609;-75
2021/12/01 08:52:44;;;;;;;1.58;1.30;;;;;;;;;;5050819;28;20234;-78
2021/12/01 08:55:12;;;;;;;1.40;1.25;;;;;;;;;;5044512;28;20191;-77
2021/12/01 08:57:41;;;;;;;1.15;1.02;;;;;;;;;;5045491;28;20206;-78
2021/12/01 09:00:09;;;;;;;2.35;1.45;;;;;;;;;;5053990;28;20693;-77
2021/12/01 09:02:36;;;;;;;1.50;1.15;;;;;;;;;;5060851;28;20194;-77
2021/12/01 09:05:03;;;;;;;1.70;1.42;;;;;;;;;;5056540;28;20493;-77
2021/12/01 09:07:30;;;;;;;1.10;1.00;;;;;;;;;;5054129;28;20582;-77
2021/12/01 09:09:57;;;;;;;3.85;1.00;;;;;;;;;;5058017;28;20677;-77
2021/12/01 09:12:24;;;;;;;1.75;1.05;;;;;;;;;;5054000;28;20191;-77
2021/12/01 09:14:55;;;;;;;1.88;1.20;;;;;;;;;;5053640;28;20202;-78
2021/12/01 09:17:22;;;;;;;1.67;1.05;;;;;;;;;;5054079;28;20616;-78
2021/12/01 09:19:50;;;;;;;1.20;1.00;;;;;;;;;;5045235;28;20194;-78
2021/12/01 09:22:18;;;;;;;1.83;1.33;;;;;;;;;;5041373;28;20938;-78
2021/12/01 09:24:45;;;;;;;1.50;1.33;;;;;;;;;;5059818;28;20197;-77
2021/12/01 09:27:12;;;;;;;1.10;0.88;;;;;;;;;;5061166;28;20210;-78
2021/12/01 09:29:39;;;;;;;1.30;1.10;;;;;;;;;;5049863;28;20198;-78
2021/12/01 09:32:10;;;;;;;1.50;1.02;;;;;;;;;;5056546;28;20554;-78
2021/12/01 09:34:39;;;;;;;1.40;1.30;;;;;;;;;;5060414;28;20191;-78
2021/12/01 09:37:06;;;;;;;1.00;0.90;;;;;;;;;;5062281;28;20213;-78
2021/12/01 09:39:33;;;;;;;1.98;0.90;;;;;;;;;;5064200;28;20198;-78
2021/12/01 09:42:01;;;;;;;1.30;1.00;;;;;;;;;;5060863;28;20688;-78
2021/12/01 09:44:28;;;;;;;1.08;0.90;;;;;;;;;;5057262;28;20335;-78
2021/12/01 09:46:56;;;;;;;1.25;0.90;;;;;;;;;;5065160;28;20214;-78
2021/12/01 09:49:25;;;;;;;1.20;1.05;;;;;;;;;;5059434;28;20272;-78
2021/12/01 09:51:52;;;;;;;1.20;1.10;;;;;;;;;;5061510;28;20209;-78
2021/12/01 09:54:19;;;;;;;1.48;1.10;;;;;;;;;;5064722;28;20202;-78
2021/12/01 09:56:47;;;;;;;1.45;1.00;;;;;;;;;;5051851;28;20202;-78
2021/12/01 09:59:14;;;;;;;1.10;0.90;;;;;;;;;;5056524;28;20227;-78
2021/12/01 10:01:41;;;;;;;1.52;1.42;;;;;;;;;;5055427;28;20190;-78
2021/12/01 10:04:09;;;;;;;1.17;1.00;;;;;;;;;;5053773;28;20210;-78
2021/12/01 10:06:37;;;;;;;1.20;1.00;;;;;;;;;;5060549;28;20649;-78
2021/12/01 10:09:07;;;;;;;1.40;1.15;;;;;;;;;;5050972;28;20202;-77
2021/12/01 10:11:35;;;;;;;1.77;1.15;;;;;;;;;;5057379;28;20302;-77
2021/12/01 10:14:03;;;;;;;1.45;1.08;;;;;;;;;;5057694;28;20553;-78
2021/12/01 10:16:32;;;;;;;4.60;1.08;;;;;;;;;;5055733;28;20194;-79
2021/12/01 10:18:59;;;;;;;2.13;1.13;;;;;;;;;;5053414;28;20201;-78
2021/12/01 10:21:31;;;;;;;1.10;0.95;;;;;;;;;;5060204;28;20201;-78
2021/12/01 10:24:01;;;;;;;1.58;1.00;;;;;;;;;;5055726;28;20701;-79
2021/12/01 10:26:29;;;;;;;1.40;1.30;;;;;;;;;;5057643;28;20209;-78
2021/12/01 10:28:57;;;;;;;1.30;1.17;;;;;;;;;;5067365;28;20198;-79
2021/12/01 10:31:32;;;;;;;1.50;1.05;;;;;;;;;;5062652;28;20289;-78
2021/12/01 10:34:13;;;;;;;1.10;1.00;;;;;;;;;;5055579;28;20194;-78
2021/12/01 10:36:40;;;;;;;1.35;1.25;;;;;;;;;;5062685;28;20554;-78
2021/12/01 10:39:09;;;;;;;2.28;1.02;;;;;;;;;;5064856;28;20655;-79
2021/12/01 10:41:37;;;;;;;1.52;1.05;;;;;;;;;;5058854;28;20204;-78
2021/12/01 10:44:09;;;;;;;2.47;1.30;;;;;;;;;;5060392;28;20519;-78
2021/12/01 10:46:43;;;;;;;1.33;1.08;;;;;;;;;;5054391;28;20195;-76
2021/12/01 10:49:10;;;;;;;1.60;0.90;;;;;;;;;;5063149;28;20194;-76
2021/12/01 10:51:39;;;;;;;1.30;0.90;;;;;;;;;;5056980;28;20199;-76
2021/12/01 10:54:06;;;;;;;1.27;0.98;;;;;;;;;;5056747;28;20195;-76
2021/12/01 10:56:36;;;;;;;1.10;1.00;;;;;;;;;;5061574;28;20203;-77
2021/12/01 10:59:10;;;;;;;1.10;0.90;;;;;;;;;;5054553;28;20190;-76
2021/12/01 11:01:38;;;;;;;2.95;1.00;;;;;;;;;;5056621;28;20206;-76
2021/12/01 11:04:05;;;;;;;2.78;1.10;;;;;;;;;;5056047;28;20207;-76
2021/12/01 11:06:34;;;;;;;1.00;0.90;;;;;;;;;;5055295;28;20203;-76
2021/12/01 11:09:02;;;;;;;1.10;0.80;;;;;;;;;;5063890;28;20222;-77
2021/12/01 11:11:39;;;;;;;1.10;0.80;;;;;;;;;;5064405;28;20221;-77
2021/12/01 11:14:09;;;;;;;1.08;0.85;;;;;;;;;;5065507;28;20572;-77
2021/12/01 11:16:37;;;;;;;1.40;0.70;;;;;;;;;;5071485;28;20251;-76
2021/12/01 11:19:04;;;;;;;1.45;1.00;;;;;;;;;;5058521;28;20191;-76
2021/12/01 11:21:31;;;;;;;1.05;0.90;;;;;;;;;;5061018;28;20463;-77
2021/12/01 11:24:00;;;;;;;1.98;1.55;;;;;;;;;;5054000;28;20202;-77
2021/12/01 11:26:28;;;;;;;1.20;1.10;;;;;;;;;;5057279;28;20195;-77
2021/12/01 11:28:57;;;;;;;1.08;0.90;;;;;;;;;;5064774;28;20222;-77
2021/12/01 11:31:25;;;;;;;1.27;0.80;;;;;;;;;;5067965;28;20202;-77
2021/12/01 11:33:55;;;;;;;1.38;1.00;;;;;;;;;;5066202;28;20206;-77
2021/12/01 11:36:25;;;;;;;2.35;0.80;;;;;;;;;;5062895;28;20198;-77
2021/12/01 11:38:53;;;;;;;1.02;0.88;;;;;;;;;;5058947;28;20213;-77
2021/12/01 11:41:20;;;;;;;1.30;1.00;;;;;;;;;;5059433;28;20589;-76
2021/12/01 11:43:48;;;;;;;2.95;1.00;;;;;;;;;;5061291;28;20637;-76
2021/12/01 11:46:16;;;;;;;2.60;1.02;;;;;;;;;;5062941;28;20550;-77
2021/12/01 11:48:45;;;;;;;0.90;0.80;;;;;;;;;;5067905;28;20219;-77
2021/12/01 11:51:15;;;;;;;1.20;1.00;;;;;;;;;;5057830;28;20206;-77
2021/12/01 11:53:43;;;;;;;1.33;1.00;;;;;;;;;;5058500;28;20191;-76
2021/12/01 11:56:14;;;;;;;1.27;0.80;;;;;;;;;;5061931;28;20201;-77
2021/12/01 11:58:46;;;;;;;2.58;0.90;;;;;;;;;;5067057;28;20654;-77
2021/12/01 12:01:32;;;;;;;1.65;1.20;;;;;;;;;;5057846;28;20191;-78
2021/12/01 12:04:20;;;;;;;1.95;1.10;;;;;;;;;;5055123;28;20735;-78
2021/12/01 12:06:52;;;;;;;1.52;0.95;;;;;;;;;;5057415;28;20202;-77
2021/12/01 12:09:19;;;;;;;1.30;0.93;;;;;;;;;;5060420;28;20623;-78
2021/12/01 12:11:48;;;;;;;1.20;0.93;;;;;;;;;;5057248;28;20681;-77
2021/12/01 12:14:17;;;;;;;7.43;1.33;;;;;;;;;;5065539;28;20281;-77
2021/12/01 12:17:01;;;;;;;1.15;1.05;;;;;;;;;;5057630;28;20700;-77
2021/12/01 12:19:43;;;;;;;1.65;0.98;;;;;;;;;;5060779;28;20212;-77
2021/12/01 12:22:12;;;;;;;3.65;1.30;;;;;;;;;;5057616;28;20697;-77
2021/12/01 12:24:43;;;;;;;1.30;0.73;;;;;;;;;;5062572;28;20199;-78
2021/12/01 12:27:30;;;;;;;1.30;1.00;;;;;;;;;;5061614;28;20919;-77
2021/12/01 12:29:57;;;;;;;1.40;1.30;;;;;;;;;;5060396;28;20206;-77
2021/12/01 12:32:29;;;;;;;1.30;1.10;;;;;;;;;;5056164;28;20606;-76
2021/12/01 12:34:57;;;;;;;1.30;1.20;;;;;;;;;;5056014;28;20248;-77
2021/12/01 12:37:27;;;;;;;1.15;0.80;;;;;;;;;;5063844;28;20195;-77
2021/12/01 12:39:56;;;;;;;1.65;1.00;;;;;;;;;;5058911;28;20216;-77
2021/12/01 12:42:23;;;;;;;1.10;1.00;;;;;;;;;;5061156;28;20195;-77
2021/12/01 12:44:51;;;;;;;1.73;1.00;;;;;;;;;;5062431;28;20657;-77
2021/12/01 12:47:22;;;;;;;1.00;0.80;;;;;;;;;;5067439;28;20558;-76
2021/12/01 12:49:50;;;;;;;1.00;0.90;;;;;;;;;;5053159;28;20232;-77
2021/12/01 12:52:35;;;;;;;1.10;1.00;;;;;;;;;;5052577;28;20202;-77
2021/12/01 12:55:05;;;;;;;1.00;0.90;;;;;;;;;;5052522;28;20205;-77
2021/12/01 12:57:52;;;;;;;2.13;1.13;;;;;;;;;;5058936;28;20203;-76
2021/12/01 13:00:21;;;;;;;1.58;1.15;;;;;;;;;;5060247;28;20221;-77
2021/12/01 13:02:49;;;;;;;1.30;1.00;;;;;;;;;;5057605;28;20194;-76
2021/12/01 13:05:29;;;;;;;3.60;1.42;;;;;;;;;;5062386;28;20198;-77
2021/12/01 13:07:59;;;;;;;1.45;1.10;;;;;;;;;;5052141;28;20214;-77
2021/12/01 13:10:27;;;;;;;1.75;1.05;;;;;;;;;;5055938;28;20205;-77
2021/12/01 13:13:01;;;;;;;1.75;1.10;;;;;;;;;;5062359;28;20661;-77
2021/12/01 13:15:30;;;;;;;1.83;1.20;;;;;;;;;;5057827;28;20201;-77
2021/12/01 13:17:58;;;;;;;2.15;0.98;;;;;;;;;;5054239;28;20194;-78
2021/12/01 13:20:27;;;;;;;3.58;2.15;;;;;;;;;;5057271;28;20210;-77
2021/12/01 13:23:02;;;;;;;2.08;1.42;;;;;;;;;;5055371;28;20205;-77
2021/12/01 13:25:29;;;;;;;1.73;1.20;;;;;;;;;;5061095;28;20194;-77
2021/12/01 13:27:57;;;;;;;6.32;1.60;;;;;;;;;;5062112;28;20302;-77
2021/12/01 13:30:24;;;;;;;1.35;1.00;;;;;;;;;;5051525;28;20201;-78
2021/12/01 13:33:07;;;;;;;5.22;1.10;;;;;;;;;;5052143;28;20229;-77
2021/12/01 13:35:34;;;;;;;1.50;1.00;;;;;;;;;;5068281;28;20197;-77
2021/12/01 13:38:02;;;;;;;2.22;1.60;;;;;;;;;;5057842;28;20216;-77
2021/12/01 13:40:30;;;;;;;1.10;1.00;;;;;;;;;;5052059;28;20207;-78
2021/12/01 13:42:57;;;;;;;3.70;1.30;;;;;;;;;;5062927;28;20633;-78
2021/12/01 13:45:26;;;;;;;1.20;1.00;;;;;;;;;;5059917;28;20234;-78
2021/12/01 13:47:54;;;;;;;3.15;1.50;;;;;;;;;;5061763;28;20218;-77
2021/12/01 13:50:21;;;;;;;2.40;1.35;;;;;;;;;;5053342;28;20202;-77
2021/12/01 13:52:51;;;;;;;3.95;1.60;;;;;;;;;;5051597;28;20195;-77
2021/12/01 13:55:22;;;;;;;7.53;1.67;;;;;;;;;;5055383;28;20285;-77
2021/12/01 13:57:50;;;;;;;1.45;1.02;;;;;;;;;;5053936;28;20210;-77
2021/12/01 14:00:30;;;;;;;4.70;1.60;;;;;;;;;;5054910;28;20221;-77
2021/12/01 14:02:57;;;;;;;1.63;1.05;;;;;;;;;;5063759;28;20189;-77
2021/12/01 14:05:25;;;;;;;1.90;1.40;;;;;;;;;;5058850;28;20198;-77
2021/12/01 14:07:52;;;;;;;2.05;1.27;;;;;;;;;;5071182;28;20661;-77
2021/12/01 14:10:37;;;;;;;3.38;1.20;;;;;;;;;;5070685;28;20194;-77
2021/12/01 14:13:06;;;;;;;5.40;2.30;;;;;;;;;;5059632;28;20204;-75
2021/12/01 14:15:34;;;;;;;2.35;1.40;;;;;;;;;;5063572;28;20201;-76
2021/12/01 14:18:02;;;;;;;3.60;1.50;;;;;;;;;;5061551;28;20282;-76
2021/12/01 14:20:29;;;;;;;3.72;1.55;;;;;;;;;;5055627;28;20202;-76
2021/12/01 14:22:57;;;;;;;3.15;1.45;;;;;;;;;;5065200;28;20194;-76
2021/12/01 14:25:24;;;;;;;3.17;1.25;;;;;;;;;;5064621;28;20706;-76
2021/12/01 14:27:52;;;;;;;3.25;1.60;;;;;;;;;;5056414;28;20205;-75
2021/12/01 14:30:20;;;;;;;6.35;1.95;;;;;;;;;;5061972;28;20658;-75
2021/12/01 14:32:52;;;;;;;3.95;1.75;;;;;;;;;;5066401;28;20197;-76
2021/12/01 14:35:21;;;;;;;4.25;1.65;;;;;;;;;;5063863;28;20202;-75
2021/12/01 14:37:48;;;;;;;2.63;2.42;;;;;;;;;;5067761;28;20186;-76
2021/12/01 14:40:17;;;;;;;4.57;1.85;;;;;;;;;;5064174;28;20206;-76
2021/12/01 14:42:44;;;;;;;2.00;1.25;;;;;;;;;;5057009;28;20203;-76
2021/12/01 14:45:12;;;;;;;3.03;1.50;;;;;;;;;;5064462;28;20653;-76
2021/12/01 14:47:41;;;;;;;2.15;1.45;;;;;;;;;;5067970;28;20187;-76
2021/12/01 14:50:08;;;;;;;5.53;1.85;;;;;;;;;;5069570;28;20227;-76
2021/12/01 14:52:37;;;;;;;3.25;1.70;;;;;;;;;;5057033;28;20210;-76
2021/12/01 14:55:09;;;;;;;3.85;1.40;;;;;;;;;;5058932;28;20605;-76
2021/12/01 14:57:37;;;;;;;4.95;1.75;;;;;;;;;;5060429;28;20213;-75